createdAt,value
2022-10-02T00:03:55.929Z,2.25
2022-10-02T00:09:49.932Z,3.60
2022-10-02T00:15:42.943Z,3.38
2022-10-02T00:21:41.344Z,4.78
2022-10-02T00:27:33.061Z,3.63
2022-10-02T00:33:43.750Z,6.00
2022-10-02T00:39:38.867Z,4.55
2022-10-02T00:45:47.003Z,5.32
2022-10-02T00:51:48.494Z,6.05
2022-10-02T00:57:40.590Z,5.45
2022-10-02T01:03:40.580Z,4.22
2022-10-02T01:09:32.920Z,9.07
2022-10-02T01:15:30.754Z,5.85
2022-10-02T01:21:36.502Z,5.07
2022-10-02T01:27:28.832Z,2.45
2022-10-02T01:33:20.853Z,2.90
2022-10-02T01:39:13.012Z,3.80
2022-10-02T01:45:07.194Z,3.47
2022-10-02T01:57:00.813Z,10.98
2022-10-02T02:03:07.597Z,3.30
2022-10-02T02:09:18.363Z,6.95
2022-10-02T02:15:20.922Z,3.20
2022-10-02T02:21:15.012Z,6.00
2022-10-02T02:27:10.042Z,6.43
2022-10-02T02:33:04.712Z,6.65
2022-10-02T02:39:03.308Z,7.13
2022-10-02T02:45:15.992Z,5.50
2022-10-02T02:51:10.928Z,9.23
2022-10-02T02:57:05.202Z,5.45
2022-10-02T03:02:58.732Z,4.43
2022-10-02T03:08:52.073Z,6.10
2022-10-02T03:15:13.843Z,5.30
2022-10-02T03:21:10.412Z,7.32
2022-10-02T03:27:08.873Z,6.03
2022-10-02T03:33:02.033Z,8.10
2022-10-02T03:39:19.956Z,7.87
2022-10-02T03:45:09.052Z,7.30
2022-10-02T03:51:01.243Z,7.43
2022-10-02T03:56:57.393Z,6.93
2022-10-02T04:02:55.445Z,4.18
2022-10-02T04:08:54.688Z,6.05
2022-10-02T04:14:54.545Z,9.20
2022-10-02T04:20:50.540Z,8.80
2022-10-02T04:26:47.799Z,11.45
2022-10-02T04:32:39.997Z,10.20
2022-10-02T04:38:32.328Z,7.68
2022-10-02T04:44:31.034Z,8.20
2022-10-02T04:50:31.175Z,10.15
2022-10-02T04:56:42.285Z,9.23
2022-10-02T05:02:45.955Z,7.10
2022-10-02T05:08:57.627Z,7.63
2022-10-02T05:14:55.445Z,10.50
2022-10-02T05:20:52.774Z,6.85
2022-10-02T05:26:48.756Z,10.82
2022-10-02T05:32:59.701Z,8.13
2022-10-02T05:39:03.498Z,10.82
2022-10-02T05:50:50.747Z,13.50
2022-10-02T05:56:46.516Z,8.27
2022-10-02T06:02:57.596Z,7.20
2022-10-02T06:09:17.693Z,7.40
2022-10-02T06:15:16.056Z,4.57
2022-10-02T06:21:16.885Z,6.45
2022-10-02T06:27:09.475Z,9.18
2022-10-02T06:33:04.193Z,10.35
2022-10-02T06:38:58.563Z,5.18
2022-10-02T06:45:16.181Z,8.45
2022-10-02T06:51:32.043Z,5.68
2022-10-02T06:57:24.640Z,5.63
2022-10-02T07:03:24.288Z,8.80
2022-10-02T07:09:16.640Z,8.43
2022-10-02T07:15:25.650Z,7.27
2022-10-02T07:21:23.432Z,7.25
2022-10-02T07:27:23.833Z,8.25
2022-10-02T07:33:19.731Z,4.82
2022-10-02T07:39:26.449Z,7.40
2022-10-02T07:45:37.818Z,5.00
2022-10-02T07:51:48.641Z,6.53
2022-10-02T07:57:43.645Z,7.47
2022-10-02T08:03:40.157Z,10.90
2022-10-02T08:09:41.628Z,3.78
2022-10-02T08:15:36.228Z,6.72
2022-10-02T08:21:31.290Z,6.65
2022-10-02T08:27:29.651Z,5.80
2022-10-02T08:33:22.510Z,6.93
2022-10-02T08:45:16.650Z,3.60
2022-10-02T08:51:11.823Z,7.67
2022-10-02T08:57:13.413Z,6.82
2022-10-02T09:03:25.373Z,4.30
2022-10-02T09:09:32.551Z,6.35
2022-10-02T09:15:44.770Z,6.03
2022-10-02T09:21:45.797Z,8.90
2022-10-02T09:27:59.596Z,4.43
2022-10-02T09:33:52.214Z,4.57
2022-10-02T09:39:51.820Z,4.25
2022-10-02T09:46:02.593Z,6.55
2022-10-02T09:52:13.366Z,5.20
2022-10-02T09:58:21.341Z,10.50
2022-10-02T10:04:22.151Z,5.00
2022-10-02T10:10:19.691Z,4.40
2022-10-02T10:16:19.637Z,8.88
2022-10-02T10:22:43.250Z,9.63
2022-10-02T10:34:36.415Z,12.77
2022-10-02T10:40:38.515Z,4.85
2022-10-02T10:52:23.009Z,9.02
2022-10-02T10:58:25.571Z,9.43
2022-10-02T11:10:28.937Z,8.32
2022-10-02T11:16:21.055Z,6.30
2022-10-02T11:22:16.356Z,6.38
2022-10-02T11:28:25.787Z,3.15
2022-10-02T11:34:24.764Z,5.20
2022-10-02T11:40:35.901Z,2.47
2022-10-02T11:46:52.532Z,5.25
2022-10-02T11:52:57.081Z,4.05
2022-10-02T11:59:08.230Z,2.08
2022-10-02T12:05:18.912Z,6.35
2022-10-02T12:11:14.481Z,4.25
2022-10-02T12:17:12.579Z,7.78
2022-10-02T12:23:24.030Z,7.45
2022-10-02T12:29:41.140Z,4.70
2022-10-02T12:35:48.851Z,6.47
2022-10-02T12:41:53.826Z,6.20
2022-10-02T12:47:46.471Z,5.25
2022-10-02T12:54:11.096Z,8.23
2022-10-02T13:00:16.592Z,5.88
2022-10-02T13:06:11.480Z,3.72
2022-10-02T13:12:03.739Z,4.22
2022-10-02T13:18:01.240Z,2.25
2022-10-02T13:24:14.841Z,1.77
2022-10-02T13:30:16.035Z,3.60
2022-10-02T13:36:34.285Z,4.88
2022-10-02T13:42:29.606Z,2.60
2022-10-02T13:48:43.123Z,2.13
2022-10-02T13:54:38.686Z,3.47
2022-10-02T14:00:51.362Z,5.97
2022-10-02T14:06:49.779Z,10.60
2022-10-02T14:12:49.050Z,8.00
2022-10-02T14:18:41.950Z,7.65
2022-10-02T14:25:00.495Z,9.18
2022-10-02T14:31:01.978Z,5.55
2022-10-02T14:37:16.755Z,3.72
2022-10-02T14:43:50.735Z,8.43
2022-10-02T14:49:44.917Z,6.22
2022-10-02T14:55:55.174Z,14.55
2022-10-02T15:02:07.504Z,6.35
2022-10-02T15:08:00.308Z,11.25
2022-10-02T15:13:56.870Z,5.55
2022-10-02T15:20:10.060Z,11.80
2022-10-02T15:26:07.971Z,12.68
2022-10-02T15:32:15.112Z,13.27
2022-10-02T15:38:27.340Z,8.00
2022-10-02T15:44:32.210Z,9.70
2022-10-02T15:50:33.275Z,8.00
2022-10-02T15:56:28.794Z,10.07
2022-10-02T16:02:21.033Z,19.13
2022-10-02T16:08:13.475Z,11.27
2022-10-02T16:14:09.000Z,8.65
2022-10-02T16:20:19.014Z,8.40
2022-10-02T16:26:11.181Z,6.57
2022-10-02T16:32:13.104Z,8.20
2022-10-02T16:38:06.660Z,9.68
2022-10-02T16:44:02.917Z,13.65
2022-10-02T16:50:05.440Z,9.27
2022-10-02T16:56:11.400Z,10.43
2022-10-02T17:02:32.463Z,15.40
2022-10-02T17:08:31.479Z,16.70
2022-10-02T17:14:22.770Z,16.92
2022-10-02T17:20:21.381Z,9.60
2022-10-02T17:26:16.060Z,14.40
2022-10-02T17:32:09.598Z,13.40
2022-10-02T17:38:05.439Z,16.20
2022-10-02T17:44:07.667Z,10.98
2022-10-02T17:50:15.557Z,10.55
2022-10-02T17:56:30.230Z,9.35
2022-10-02T18:02:34.175Z,11.80
2022-10-02T18:08:30.677Z,7.95
2022-10-02T18:14:36.167Z,11.07
2022-10-02T18:20:43.668Z,15.98
2022-10-02T18:26:35.429Z,7.80
2022-10-02T18:32:37.099Z,15.50
2022-10-02T18:38:52.257Z,12.82
2022-10-02T18:44:45.450Z,15.35
2022-10-02T18:50:41.044Z,16.97
2022-10-02T18:56:53.968Z,15.57
2022-10-02T19:02:49.941Z,12.23
2022-10-02T19:09:08.933Z,15.43
2022-10-02T19:15:20.789Z,14.90
2022-10-02T19:21:14.769Z,13.70
2022-10-02T19:27:08.634Z,14.73
2022-10-02T19:33:08.268Z,14.98
2022-10-02T19:39:02.772Z,16.70
2022-10-02T19:45:03.122Z,12.80
2022-10-02T19:50:59.116Z,16.30
2022-10-02T19:56:59.208Z,14.40
2022-10-02T20:02:54.351Z,11.45
2022-10-02T20:08:49.845Z,11.60
2022-10-02T20:15:02.022Z,9.38
2022-10-02T20:20:57.124Z,11.68
2022-10-02T20:26:51.159Z,12.68
2022-10-02T20:33:04.369Z,8.68
2022-10-02T20:39:04.927Z,10.40
2022-10-02T20:44:57.739Z,11.90
2022-10-02T20:50:55.670Z,11.68
2022-10-02T20:56:51.728Z,13.07
